createdAt,value
2018-07-17T00:00:38.340Z,5.27
2018-07-17T00:03:07.436Z,5.10
2018-07-17T00:05:36.515Z,7.60
2018-07-17T00:08:05.696Z,5.00
2018-07-17T00:10:34.784Z,4.77
2018-07-17T00:13:03.830Z,5.03
2018-07-17T00:15:32.906Z,5.57
2018-07-17T00:18:02.311Z,5.20
2018-07-17T00:20:31.433Z,5.27
2018-07-17T00:23:00.490Z,4.90
2018-07-17T00:25:29.577Z,5.20
2018-07-17T00:27:58.762Z,4.77
2018-07-17T00:30:27.907Z,5.20
2018-07-17T00:32:56.951Z,5.33
2018-07-17T00:35:26.081Z,5.43
2018-07-17T00:37:55.223Z,5.47
2018-07-17T00:40:24.268Z,5.57
2018-07-17T00:42:53.286Z,5.10
2018-07-17T00:45:22.470Z,4.60
2018-07-17T00:47:51.786Z,4.90
2018-07-17T00:50:20.832Z,5.43
2018-07-17T00:52:49.850Z,5.20
2018-07-17T00:55:18.946Z,5.27
2018-07-17T00:57:47.982Z,5.47
2018-07-17T01:00:17.038Z,5.10
2018-07-17T01:02:51.152Z,5.00
2018-07-17T01:05:25.441Z,5.80
2018-07-17T01:07:59.729Z,5.30
2018-07-17T01:10:34.110Z,5.70
2018-07-17T01:13:02.346Z,5.80
2018-07-17T01:15:35.253Z,5.70
2018-07-17T01:18:04.325Z,6.13
2018-07-17T01:20:33.685Z,5.93
2018-07-17T01:23:02.770Z,6.07
2018-07-17T01:25:32.286Z,5.40
2018-07-17T01:28:01.379Z,5.40
2018-07-17T01:30:30.437Z,5.60
2018-07-17T01:32:59.519Z,6.00
2018-07-17T01:35:28.626Z,5.70
2018-07-17T01:37:57.702Z,5.73
2018-07-17T01:40:26.759Z,6.50
2018-07-17T01:42:55.835Z,5.57
2018-07-17T01:45:24.891Z,6.00
2018-07-17T01:47:54.025Z,5.77
2018-07-17T01:50:23.153Z,5.33
2018-07-17T01:52:52.238Z,5.73
2018-07-17T01:55:21.520Z,5.73
2018-07-17T01:57:50.649Z,5.40
2018-07-17T02:00:19.775Z,5.90
2018-07-17T02:02:48.833Z,5.27
2018-07-17T02:05:17.913Z,5.40
2018-07-17T02:07:46.980Z,5.63
2018-07-17T02:10:16.018Z,5.97
2018-07-17T02:12:45.066Z,5.20
2018-07-17T02:15:14.149Z,5.53
2018-07-17T02:17:43.210Z,6.20
2018-07-17T02:20:12.366Z,5.70
2018-07-17T02:22:41.522Z,5.30
2018-07-17T02:25:10.633Z,5.50
2018-07-17T02:27:39.755Z,5.40
2018-07-17T02:30:08.789Z,5.40
2018-07-17T02:32:37.874Z,6.00
2018-07-17T02:35:06.926Z,5.27
2018-07-17T02:37:35.991Z,5.60
2018-07-17T02:40:05.317Z,5.60
2018-07-17T02:42:34.389Z,5.60
2018-07-17T02:45:03.436Z,5.63
2018-07-17T02:47:32.613Z,5.30
2018-07-17T02:50:01.650Z,6.07
2018-07-17T02:52:30.770Z,5.63
2018-07-17T02:54:59.917Z,5.20
2018-07-17T02:57:29.029Z,5.70
2018-07-17T02:59:58.059Z,5.43
2018-07-17T03:02:27.126Z,5.93
2018-07-17T03:04:56.181Z,5.70
2018-07-17T03:07:25.292Z,5.40
2018-07-17T03:09:54.425Z,5.57
2018-07-17T03:12:23.515Z,5.50
2018-07-17T03:14:52.616Z,5.50
2018-07-17T03:17:21.633Z,6.00
2018-07-17T03:19:52.326Z,5.80
2018-07-17T03:22:22.375Z,5.50
2018-07-17T03:24:51.481Z,6.60
2018-07-17T03:27:20.521Z,5.60
2018-07-17T03:29:49.600Z,5.73
2018-07-17T03:32:18.668Z,5.70
2018-07-17T03:34:47.750Z,5.50
2018-07-17T03:37:16.816Z,5.90
2018-07-17T03:39:46.028Z,5.40
2018-07-17T03:42:15.118Z,5.57
2018-07-17T03:44:45.149Z,5.43
2018-07-17T03:47:14.762Z,5.57
2018-07-17T03:49:43.839Z,5.93
2018-07-17T03:52:12.938Z,5.50
2018-07-17T03:54:42.070Z,5.50
2018-07-17T03:57:11.116Z,6.27
2018-07-17T03:59:40.214Z,5.70
2018-07-17T04:02:09.374Z,7.23
2018-07-17T04:04:38.426Z,5.20
2018-07-17T04:07:07.483Z,5.20
2018-07-17T04:09:36.661Z,5.57
2018-07-17T04:12:05.797Z,5.70
2018-07-17T04:14:34.893Z,6.33
2018-07-17T04:17:03.966Z,5.60
2018-07-17T04:19:33.119Z,5.87
2018-07-17T04:22:02.210Z,5.73
2018-07-17T04:24:31.282Z,6.23
2018-07-17T04:27:00.357Z,6.53
2018-07-17T04:29:29.493Z,6.70
2018-07-17T04:31:58.567Z,6.80
2018-07-17T04:34:27.626Z,6.53
2018-07-17T04:36:56.781Z,7.00
2018-07-17T04:39:25.874Z,6.10
2018-07-17T04:41:54.967Z,6.73
2018-07-17T04:44:24.916Z,7.00
2018-07-17T04:46:54.026Z,8.83
2018-07-17T04:49:23.109Z,6.57
2018-07-17T04:51:52.250Z,8.07
2018-07-17T04:54:21.286Z,7.00
2018-07-17T04:56:50.577Z,6.30
2018-07-17T04:59:19.621Z,6.40
2018-07-17T05:01:48.713Z,6.40
2018-07-17T05:04:17.827Z,6.90
2018-07-17T05:06:46.881Z,6.90
2018-07-17T05:09:16.036Z,6.40
2018-07-17T05:11:51.324Z,6.17
2018-07-17T05:14:20.438Z,6.47
2018-07-17T05:16:49.490Z,6.57
2018-07-17T05:19:18.555Z,7.67
2018-07-17T05:21:47.699Z,6.73
2018-07-17T05:24:16.774Z,5.70
2018-07-17T05:26:45.833Z,7.00
2018-07-17T05:29:14.920Z,6.20
2018-07-17T05:31:44.013Z,6.70
2018-07-17T05:34:13.131Z,6.30
2018-07-17T05:36:42.226Z,6.00
2018-07-17T05:39:11.301Z,6.50
2018-07-17T05:41:40.432Z,6.93
2018-07-17T05:44:09.923Z,7.00
2018-07-17T05:46:39.045Z,6.97
2018-07-17T05:49:08.123Z,6.70
2018-07-17T05:51:37.572Z,7.23
2018-07-17T05:54:06.728Z,7.40
2018-07-17T05:56:35.819Z,7.73
2018-07-17T05:59:06.269Z,7.17
2018-07-17T06:01:35.820Z,7.73
2018-07-17T06:04:05.872Z,7.47
2018-07-17T06:06:34.965Z,7.47
2018-07-17T06:09:04.953Z,8.00
2018-07-17T06:11:34.070Z,6.97
2018-07-17T06:14:03.245Z,7.40
2018-07-17T06:16:32.351Z,8.93
2018-07-17T06:19:01.717Z,7.30
2018-07-17T06:21:30.870Z,8.23
2018-07-17T06:24:00.529Z,9.60
2018-07-17T06:26:29.658Z,7.70
2018-07-17T06:28:58.983Z,8.47
2018-07-17T06:31:28.067Z,15.00
2018-07-17T06:33:57.245Z,8.73
2018-07-17T06:36:26.397Z,8.40
2018-07-17T06:38:55.817Z,9.17
2018-07-17T06:41:25.761Z,9.23
2018-07-17T06:43:54.900Z,10.70
2018-07-17T06:46:24.046Z,12.60
2018-07-17T06:48:53.116Z,10.57
2018-07-17T06:51:22.697Z,9.63
2018-07-17T06:53:51.848Z,7.63
2018-07-17T06:56:20.990Z,8.17
2018-07-17T06:58:50.281Z,7.73
2018-07-17T07:01:19.441Z,6.77
2018-07-17T07:03:48.951Z,7.60
2018-07-17T07:06:18.060Z,7.20
2018-07-17T07:08:47.183Z,8.60
2018-07-17T07:11:16.384Z,7.93
2018-07-17T07:13:45.450Z,7.47
2018-07-17T07:16:14.530Z,6.63
2018-07-17T07:18:43.673Z,7.50
2018-07-17T07:21:13.535Z,7.87
2018-07-17T07:23:42.789Z,6.70
2018-07-17T07:26:11.905Z,6.40
2018-07-17T07:28:41.261Z,6.67
2018-07-17T07:31:10.713Z,7.20
2018-07-17T07:33:39.789Z,6.40
2018-07-17T07:36:08.950Z,6.20
2018-07-17T07:38:38.647Z,7.37
2018-07-17T07:41:07.759Z,6.60
2018-07-17T07:43:36.923Z,7.23
2018-07-17T07:46:06.121Z,5.83
2018-07-17T07:48:35.425Z,6.50
2018-07-17T07:51:04.450Z,7.63
2018-07-17T07:53:34.174Z,6.30
2018-07-17T07:56:03.204Z,7.20
2018-07-17T07:58:32.349Z,7.43
2018-07-17T08:01:01.552Z,5.97
2018-07-17T08:03:30.671Z,6.97
2018-07-17T08:06:00.000Z,7.33
2018-07-17T08:08:29.038Z,6.63
2018-07-17T08:10:58.237Z,8.20
2018-07-17T08:13:27.322Z,6.73
2018-07-17T08:15:56.442Z,5.90
2018-07-17T08:18:26.170Z,8.30
2018-07-17T08:20:55.387Z,7.07
2018-07-17T08:23:24.465Z,6.83
2018-07-17T08:25:53.541Z,6.53
2018-07-17T08:28:22.557Z,6.40
2018-07-17T08:30:51.829Z,6.30
2018-07-17T08:33:20.898Z,6.17
2018-07-17T08:35:50.037Z,6.73
2018-07-17T08:38:19.183Z,7.83
2018-07-17T08:40:48.242Z,6.50
2018-07-17T08:43:17.538Z,6.33
2018-07-17T08:45:46.590Z,6.13
2018-07-17T08:48:15.637Z,7.73
2018-07-17T08:50:44.833Z,6.37
2018-07-17T08:53:13.919Z,5.47
2018-07-17T08:55:43.016Z,7.00
2018-07-17T08:58:12.043Z,7.13
2018-07-17T09:00:41.142Z,8.20
2018-07-17T09:03:10.154Z,7.13
2018-07-17T09:05:39.234Z,6.90
2018-07-17T09:08:09.045Z,7.00
2018-07-17T09:10:38.110Z,9.33
2018-07-17T09:13:07.404Z,8.50
2018-07-17T09:15:37.392Z,7.53
2018-07-17T09:18:06.697Z,7.10
2018-07-17T09:20:35.782Z,6.37
2018-07-17T09:23:05.731Z,8.90
2018-07-17T09:25:34.754Z,8.10
2018-07-17T09:28:03.906Z,7.13
2018-07-17T09:30:38.206Z,7.40
2018-07-17T09:33:07.617Z,6.37
2018-07-17T09:35:36.850Z,6.87
2018-07-17T09:38:06.436Z,6.67
2018-07-17T09:40:35.528Z,6.60
2018-07-17T09:43:04.626Z,7.90
2018-07-17T09:45:33.830Z,6.57
2018-07-17T09:48:02.988Z,7.63
2018-07-17T09:50:32.105Z,6.97
2018-07-17T09:53:01.312Z,7.27
2018-07-17T09:55:30.452Z,7.10
2018-07-17T09:57:59.733Z,9.10
2018-07-17T10:00:34.113Z,7.20
2018-07-17T10:03:03.786Z,6.97
2018-07-17T10:05:32.845Z,6.37
2018-07-17T10:08:02.444Z,7.73
2018-07-17T10:10:31.548Z,8.50
2018-07-17T10:13:00.702Z,7.80
2018-07-17T10:15:30.143Z,6.87
2018-07-17T10:17:59.273Z,8.00
2018-07-17T10:20:28.409Z,7.83
2018-07-17T10:22:57.537Z,8.63
2018-07-17T10:25:26.666Z,7.40
2018-07-17T10:27:55.773Z,7.07
2018-07-17T10:30:28.410Z,6.07
2018-07-17T10:32:57.609Z,6.10
2018-07-17T10:35:26.729Z,6.37
2018-07-17T10:37:55.911Z,5.53
2018-07-17T10:40:25.085Z,5.63
2018-07-17T10:42:54.278Z,6.57
2018-07-17T10:45:23.355Z,7.20
2018-07-17T10:47:52.397Z,6.83
2018-07-17T10:50:21.491Z,6.40
2018-07-17T10:52:50.619Z,4.50
2018-07-17T10:55:20.145Z,6.77
2018-07-17T10:57:49.202Z,5.80
2018-07-17T11:00:18.347Z,5.00
2018-07-17T11:02:47.808Z,5.20
2018-07-17T11:05:16.957Z,4.30
2018-07-17T11:07:46.440Z,6.00
2018-07-17T11:10:15.622Z,4.83
2018-07-17T11:12:44.698Z,5.00
2018-07-17T11:15:14.060Z,5.60
2018-07-17T11:17:43.186Z,5.70
2018-07-17T11:20:12.305Z,5.50
2018-07-17T11:22:41.358Z,4.90
2018-07-17T11:25:10.570Z,4.13
2018-07-17T11:27:39.750Z,4.20
2018-07-17T11:30:08.899Z,4.43
2018-07-17T11:32:38.010Z,4.10
2018-07-17T11:35:07.315Z,4.67
2018-07-17T11:37:36.918Z,3.40
2018-07-17T11:40:06.340Z,4.07
2018-07-17T11:42:35.517Z,3.80
2018-07-17T11:45:04.594Z,3.50
2018-07-17T11:47:33.715Z,3.87
2018-07-17T11:50:02.873Z,3.87
2018-07-17T11:52:31.917Z,3.50
2018-07-17T11:55:01.678Z,3.27
2018-07-17T11:57:30.724Z,3.40
2018-07-17T11:59:59.887Z,3.17
2018-07-17T12:02:28.978Z,2.87
2018-07-17T12:04:58.130Z,3.30
2018-07-17T12:07:28.450Z,3.10
2018-07-17T12:09:57.566Z,4.10
2018-07-17T12:12:26.817Z,2.90
2018-07-17T12:14:55.940Z,3.57
2018-07-17T12:17:25.115Z,3.83
2018-07-17T12:19:54.241Z,3.50
2018-07-17T12:22:23.247Z,3.50
2018-07-17T12:24:52.294Z,3.60
2018-07-17T12:27:21.324Z,2.97
2018-07-17T12:29:50.426Z,3.40
2018-07-17T12:32:19.526Z,3.30
2018-07-17T12:34:48.735Z,3.03
2018-07-17T12:37:17.734Z,2.63
2018-07-17T12:39:46.793Z,3.40
2018-07-17T12:42:16.714Z,3.20
2018-07-17T12:44:45.790Z,3.53
2018-07-17T12:47:15.150Z,3.30
2018-07-17T12:49:44.254Z,3.77
2018-07-17T12:52:13.283Z,3.97
2018-07-17T12:54:42.925Z,3.60
2018-07-17T12:57:12.029Z,3.10
2018-07-17T12:59:41.218Z,4.10
2018-07-17T13:02:10.473Z,4.47
2018-07-17T13:04:39.717Z,6.03
2018-07-17T13:07:08.810Z,3.60
2018-07-17T13:09:37.975Z,3.40
2018-07-17T13:12:07.029Z,4.00
2018-07-17T13:14:36.158Z,3.30
2018-07-17T13:17:05.211Z,3.70
2018-07-17T13:19:34.393Z,4.70
2018-07-17T13:22:03.453Z,3.93
2018-07-17T13:24:32.528Z,5.40
2018-07-17T13:27:02.488Z,3.90
2018-07-17T13:29:31.814Z,3.73
2018-07-17T13:32:00.975Z,3.70
2018-07-17T13:34:30.045Z,3.60
2018-07-17T13:36:59.162Z,3.87
2018-07-17T13:39:28.560Z,3.70
2018-07-17T13:41:57.593Z,5.93
2018-07-17T13:44:26.671Z,3.70
2018-07-17T13:46:55.762Z,3.37
2018-07-17T13:49:24.826Z,3.40
2018-07-17T13:51:54.042Z,3.67
2018-07-17T13:54:23.120Z,3.50
2018-07-17T13:56:52.217Z,3.50
2018-07-17T13:59:21.339Z,4.27
2018-07-17T14:01:50.425Z,3.37
2018-07-17T14:04:19.498Z,3.70
2018-07-17T14:06:48.761Z,3.87
2018-07-17T14:09:17.796Z,3.70
2018-07-17T14:11:46.951Z,4.00
2018-07-17T14:14:16.086Z,4.60
2018-07-17T14:16:45.241Z,4.00
2018-07-17T14:19:14.297Z,4.00
2018-07-17T14:21:43.377Z,4.00
2018-07-17T14:24:19.030Z,3.63
2018-07-17T14:26:48.453Z,3.67
2018-07-17T14:29:23.204Z,3.80
2018-07-17T14:31:52.323Z,4.50
2018-07-17T14:34:21.487Z,3.60
2018-07-17T14:36:50.605Z,3.50
2018-07-17T14:39:19.767Z,4.20
2018-07-17T14:41:49.055Z,3.63
2018-07-17T14:44:18.159Z,3.83
2018-07-17T14:46:47.347Z,3.07
2018-07-17T14:49:16.659Z,3.90
2018-07-17T14:51:45.773Z,3.60
2018-07-17T14:54:14.887Z,3.30
2018-07-17T14:56:44.031Z,3.30
2018-07-17T14:59:13.131Z,2.90
2018-07-17T15:01:42.282Z,3.43
2018-07-17T15:04:11.442Z,3.50
2018-07-17T15:06:41.332Z,2.73
2018-07-17T15:09:10.545Z,2.80
2018-07-17T15:11:39.614Z,2.80
2018-07-17T15:14:08.735Z,2.80
2018-07-17T15:16:37.965Z,2.60
2018-07-17T15:19:07.235Z,2.90
2018-07-17T15:21:36.439Z,3.30
2018-07-17T15:24:05.504Z,3.17
2018-07-17T15:26:34.612Z,2.87
2018-07-17T15:29:03.754Z,2.80
2018-07-17T15:31:32.927Z,2.70
2018-07-17T15:34:02.392Z,2.60
2018-07-17T15:36:31.499Z,2.80
2018-07-17T15:39:01.317Z,2.60
2018-07-17T15:41:30.411Z,2.50
2018-07-17T15:43:59.566Z,2.27
2018-07-17T15:46:28.730Z,2.50
2018-07-17T15:48:57.807Z,2.50
2018-07-17T15:51:26.903Z,2.33
2018-07-17T15:53:56.084Z,2.80
2018-07-17T15:56:25.249Z,2.10
2018-07-17T15:58:54.288Z,2.77
2018-07-17T16:01:23.478Z,2.50
2018-07-17T16:03:52.874Z,2.60
2018-07-17T16:06:22.330Z,2.87
2018-07-17T16:08:51.346Z,3.00
2018-07-17T16:11:20.533Z,2.97
2018-07-17T16:13:49.784Z,3.17
2018-07-17T16:16:18.814Z,2.80
2018-07-17T16:18:47.958Z,2.80
2018-07-17T16:21:17.386Z,3.53
2018-07-17T16:23:46.432Z,3.23
2018-07-17T16:26:15.710Z,3.10
2018-07-17T16:28:44.925Z,3.47
2018-07-17T16:31:15.226Z,3.50
2018-07-17T16:33:44.358Z,3.23
2018-07-17T16:36:13.419Z,3.57
2018-07-17T16:38:42.747Z,3.43
2018-07-17T16:41:12.385Z,3.20
2018-07-17T16:43:41.477Z,3.10
2018-07-17T16:46:10.529Z,3.40
2018-07-17T16:48:39.617Z,2.90
2018-07-17T16:51:08.721Z,3.30
2018-07-17T16:53:37.853Z,3.30
2018-07-17T16:56:07.498Z,2.83
2018-07-17T16:58:36.586Z,3.10
2018-07-17T17:01:05.687Z,3.10
2018-07-17T17:03:34.811Z,4.23
2018-07-17T17:06:03.882Z,2.80
2018-07-17T17:08:32.942Z,3.30
2018-07-17T17:11:02.019Z,3.50
2018-07-17T17:13:31.167Z,3.50
2018-07-17T17:16:00.262Z,3.07
2018-07-17T17:18:29.330Z,3.03
2018-07-17T17:20:58.466Z,3.57
2018-07-17T17:23:27.605Z,3.00
2018-07-17T17:25:57.143Z,2.70
2018-07-17T17:28:26.598Z,2.93
2018-07-17T17:30:56.574Z,3.47
2018-07-17T17:33:26.213Z,3.10
2018-07-17T17:35:55.531Z,3.20
2018-07-17T17:38:24.666Z,3.13
2018-07-17T17:40:53.718Z,3.60
2018-07-17T17:43:23.017Z,3.00
2018-07-17T17:45:52.122Z,3.20
2018-07-17T17:48:21.201Z,3.50
2018-07-17T17:50:50.948Z,3.40
2018-07-17T17:53:20.007Z,3.33
2018-07-17T17:55:49.148Z,3.47
2018-07-17T17:58:18.205Z,3.40
2018-07-17T18:00:49.157Z,3.90
2018-07-17T18:03:18.227Z,3.77
2018-07-17T18:05:47.637Z,3.87
2018-07-17T18:08:16.716Z,4.20
2018-07-17T18:10:45.898Z,4.00
2018-07-17T18:13:14.952Z,3.87
2018-07-17T18:15:44.430Z,3.80
2018-07-17T18:18:13.603Z,3.87
2018-07-17T18:20:43.385Z,3.30
2018-07-17T18:23:12.496Z,3.53
2018-07-17T18:25:41.596Z,3.40
2018-07-17T18:28:10.693Z,3.30
2018-07-17T18:30:39.861Z,4.23
2018-07-17T18:33:08.955Z,4.00
2018-07-17T18:35:38.016Z,3.37
2018-07-17T18:38:07.178Z,3.90
2018-07-17T18:40:38.646Z,3.93
2018-07-17T18:43:07.742Z,3.80
2018-07-17T18:45:36.752Z,3.90
2018-07-17T18:48:06.012Z,3.60
2018-07-17T18:50:35.098Z,3.97
2018-07-17T18:53:04.271Z,3.70
2018-07-17T18:55:33.401Z,4.00
2018-07-17T18:58:02.528Z,3.90
2018-07-17T19:00:31.567Z,3.80
2018-07-17T19:03:00.651Z,3.77
2018-07-17T19:06:01.437Z,4.20
2018-07-17T19:08:41.088Z,3.93
2018-07-17T19:11:19.951Z,3.70
2018-07-17T19:13:54.599Z,3.70
2018-07-17T19:16:23.677Z,4.20
2018-07-17T19:18:52.777Z,3.80
2018-07-17T19:21:21.877Z,5.30
2018-07-17T19:23:51.272Z,4.63
2018-07-17T19:26:20.675Z,5.40
2018-07-17T19:28:49.957Z,4.97
2018-07-17T19:31:19.131Z,4.50
2018-07-17T19:33:48.235Z,4.17
2018-07-17T19:36:17.434Z,4.00
2018-07-17T19:38:46.568Z,4.13
2018-07-17T19:41:15.734Z,4.10
2018-07-17T19:43:45.051Z,4.30
2018-07-17T19:46:14.128Z,4.30
2018-07-17T19:48:43.266Z,4.27
2018-07-17T19:51:28.192Z,4.60
2018-07-17T19:54:01.806Z,5.03
2018-07-17T19:56:32.945Z,4.10
2018-07-17T19:59:02.060Z,4.03
2018-07-17T20:01:31.139Z,4.00
2018-07-17T20:04:00.213Z,4.57
2018-07-17T20:06:29.384Z,4.00
2018-07-17T20:08:59.076Z,4.60
2018-07-17T20:11:28.443Z,4.00
2018-07-17T20:13:57.518Z,4.17
2018-07-17T20:16:26.629Z,4.10
2018-07-17T20:18:55.707Z,4.30
2018-07-17T20:21:24.998Z,4.37
2018-07-17T20:23:54.052Z,4.10
2018-07-17T20:26:23.165Z,4.10
2018-07-17T20:28:52.270Z,4.50
2018-07-17T20:31:21.554Z,4.53
2018-07-17T20:33:50.652Z,4.20
2018-07-17T20:36:19.679Z,4.23
2018-07-17T20:38:48.739Z,4.43
2018-07-17T20:41:17.817Z,4.53
2018-07-17T20:43:47.281Z,4.17
2018-07-17T20:46:16.490Z,4.30
2018-07-17T20:48:45.696Z,5.00
2018-07-17T20:51:14.761Z,4.63
2018-07-17T20:53:43.815Z,4.80
2018-07-17T20:56:13.389Z,4.20
2018-07-17T20:58:42.653Z,4.77
2018-07-17T21:01:12.024Z,5.87
2018-07-17T21:03:41.436Z,5.40
2018-07-17T21:06:11.112Z,5.43
2018-07-17T21:08:40.227Z,5.03
2018-07-17T21:11:09.670Z,4.83
2018-07-17T21:13:39.664Z,4.80
2018-07-17T21:16:09.042Z,5.13
2018-07-17T21:18:38.179Z,4.97
2018-07-17T21:21:07.437Z,5.50
2018-07-17T21:23:36.538Z,5.07
2018-07-17T21:26:05.982Z,5.50
2018-07-17T21:28:35.152Z,5.63
2018-07-17T21:31:04.208Z,4.90
2018-07-17T21:33:33.431Z,5.40
2018-07-17T21:36:02.568Z,5.07
2018-07-17T21:38:31.820Z,4.90
2018-07-17T21:41:00.910Z,5.13
2018-07-17T21:43:29.975Z,4.90
2018-07-17T21:45:59.337Z,5.27
2018-07-17T21:48:28.414Z,5.03
2018-07-17T21:50:57.520Z,5.53
2018-07-17T21:53:26.549Z,5.00
2018-07-17T21:55:55.625Z,5.17
2018-07-17T21:58:24.763Z,5.50
2018-07-17T22:00:53.992Z,5.50
2018-07-17T22:03:23.052Z,5.20
2018-07-17T22:05:52.280Z,5.30
2018-07-17T22:08:21.337Z,5.43
2018-07-17T22:10:50.767Z,4.83
2018-07-17T22:13:20.043Z,5.50
2018-07-17T22:15:49.149Z,5.53
2018-07-17T22:18:18.191Z,5.40
2018-07-17T22:20:47.236Z,5.30
2018-07-17T22:23:16.420Z,5.13
2018-07-17T22:25:45.603Z,5.40
2018-07-17T22:28:14.642Z,5.60
2018-07-17T22:30:43.714Z,5.20
2018-07-17T22:33:12.796Z,5.37
2018-07-17T22:35:41.858Z,5.30
2018-07-17T22:38:11.224Z,5.43
2018-07-17T22:40:40.290Z,5.20
2018-07-17T22:43:09.358Z,5.83
2018-07-17T22:45:38.431Z,5.27
2018-07-17T22:48:07.529Z,5.43
2018-07-17T22:50:36.621Z,5.20
2018-07-17T22:53:05.666Z,5.83
2018-07-17T22:55:34.977Z,5.90
2018-07-17T22:58:04.055Z,5.20
2018-07-17T23:00:33.088Z,4.87
2018-07-17T23:03:02.125Z,5.37
2018-07-17T23:05:31.162Z,5.47
2018-07-17T23:08:00.185Z,5.00
2018-07-17T23:10:29.199Z,5.77
2018-07-17T23:12:58.268Z,5.20
2018-07-17T23:15:27.307Z,5.53
2018-07-17T23:17:56.333Z,5.40
2018-07-17T23:20:25.475Z,5.30
2018-07-17T23:22:56.643Z,4.97
2018-07-17T23:25:26.763Z,5.70
2018-07-17T23:27:56.450Z,5.53
2018-07-17T23:30:25.568Z,5.33
2018-07-17T23:32:54.775Z,4.90
2018-07-17T23:35:24.793Z,5.10
2018-07-17T23:37:54.177Z,5.37
2018-07-17T23:40:23.581Z,5.50
2018-07-17T23:42:52.714Z,4.80
2018-07-17T23:45:28.348Z,5.43
2018-07-17T23:47:57.396Z,5.03
2018-07-17T23:50:26.391Z,5.20
2018-07-17T23:52:55.452Z,6.20
2018-07-17T23:55:24.481Z,5.40
2018-07-17T23:57:53.845Z,5.53
